Time;durP1;ratioP1;P1;durP2;ratioP2;P2;SDS_P1;SDS_P2;PMS_P1;PMS_P2;Temp;Humidity;BMP_temperature;BMP_pressure;BME280_temperature;BME280_humidity;BME280_pressure;Samples;Min_cycle;Max_cycle;Signal;HPM_P1;HPM_P2
2022/05/18 00:00:22;;;;;;;3.60;1.60;;;22.70;57.30;;;;;;4476467;32;20066;-74
2022/05/18 00:02:49;;;;;;;2.75;1.60;;;22.70;57.20;;;;;;4476759;31;20211;-74
2022/05/18 00:05:15;;;;;;;2.40;2.00;;;22.70;57.20;;;;;;4476363;32;20515;-74
2022/05/18 00:07:42;;;;;;;3.28;1.45;;;22.70;57.20;;;;;;4476280;32;20093;-74
2022/05/18 00:10:08;;;;;;;3.08;1.60;;;22.70;57.20;;;;;;4476399;32;20619;-74
2022/05/18 00:12:33;;;;;;;5.25;1.90;;;22.70;57.30;;;;;;4476353;32;20604;-75
2022/05/18 00:14:59;;;;;;;2.25;1.25;;;22.70;57.20;;;;;;4476352;31;20074;-75
2022/05/18 00:17:25;;;;;;;2.78;1.92;;;22.70;57.20;;;;;;4476209;31;20166;-75
2022/05/18 00:19:51;;;;;;;4.35;1.80;;;22.70;57.20;;;;;;4476172;32;20089;-74
2022/05/18 00:22:17;;;;;;;2.45;1.33;;;22.60;57.10;;;;;;4476262;32;20207;-75
2022/05/18 00:24:43;;;;;;;2.28;1.65;;;22.60;57.20;;;;;;4476431;32;20092;-75
2022/05/18 00:27:08;;;;;;;2.63;1.70;;;22.60;57.20;;;;;;4476092;32;20199;-75
2022/05/18 00:29:34;;;;;;;2.55;1.70;;;22.60;57.20;;;;;;4476254;32;20066;-75
2022/05/18 00:32:01;;;;;;;3.83;1.70;;;22.60;57.10;;;;;;4476036;32;20136;-74
2022/05/18 00:34:27;;;;;;;4.22;1.92;;;22.60;57.10;;;;;;4476227;32;20207;-75
2022/05/18 00:36:52;;;;;;;2.50;1.65;;;22.60;57.20;;;;;;4476191;32;20155;-75
2022/05/18 00:39:19;;;;;;;3.67;1.70;;;22.60;57.20;;;;;;4476157;32;20077;-74
2022/05/18 00:41:45;;;;;;;2.58;1.70;;;22.60;57.20;;;;;;4476401;32;20187;-74
2022/05/18 00:44:11;;;;;;;2.38;1.50;;;22.60;57.10;;;;;;4475782;32;20267;-75
2022/05/18 00:46:37;;;;;;;3.50;1.50;;;22.60;57.10;;;;;;4476343;32;20379;-75
2022/05/18 00:49:08;;;;;;;1.83;1.45;;;22.60;57.10;;;;;;4476032;32;20394;-75
2022/05/18 00:51:42;;;;;;;3.00;1.95;;;22.60;57.10;;;;;;4475870;32;20604;-75
2022/05/18 00:54:17;;;;;;;3.20;1.50;;;22.60;57.20;;;;;;4476155;32;20078;-74
2022/05/18 00:56:59;;;;;;;3.05;1.85;;;22.60;57.10;;;;;;4477097;32;20073;-75
2022/05/18 00:59:30;;;;;;;4.32;1.60;;;22.60;57.10;;;;;;4477972;32;20062;-75
2022/05/18 01:01:58;;;;;;;2.78;1.60;;;22.60;57.10;;;;;;4479171;32;20077;-74
2022/05/18 01:04:26;;;;;;;2.50;1.17;;;22.60;57.20;;;;;;4478943;31;20322;-75
2022/05/18 01:07:01;;;;;;;2.75;1.50;;;22.60;57.10;;;;;;4478952;31;20105;-75
2022/05/18 01:09:41;;;;;;;3.20;1.45;;;22.60;57.20;;;;;;4479266;31;20095;-75
2022/05/18 01:12:09;;;;;;;2.55;1.58;;;22.60;57.10;;;;;;4479038;31;20503;-74
2022/05/18 01:14:54;;;;;;;2.60;1.52;;;22.60;57.10;;;;;;4479121;32;20158;-75
2022/05/18 01:17:24;;;;;;;3.42;1.33;;;22.60;57.10;;;;;;4479182;31;20121;-74
2022/05/18 01:19:55;;;;;;;2.30;1.60;;;22.50;57.10;;;;;;4479104;31;20105;-75
2022/05/18 01:22:55;;;;;;;2.63;1.30;;;22.50;57.10;;;;;;4477568;32;20112;-75
2022/05/18 01:25:40;;;;;;;2.10;1.40;;;22.50;57.00;;;;;;4478980;31;20263;-75
2022/05/18 01:28:07;;;;;;;2.88;1.50;;;22.50;57.00;;;;;;4478796;31;20190;-75
2022/05/18 01:30:34;;;;;;;2.20;1.65;;;22.50;57.10;;;;;;4478344;31;20570;-75
2022/05/18 01:33:05;;;;;;;2.15;1.50;;;22.50;57.10;;;;;;4478671;31;20070;-75
2022/05/18 01:35:32;;;;;;;2.63;1.38;;;22.50;57.10;;;;;;4478696;31;20121;-75
2022/05/18 01:37:59;;;;;;;1.98;1.38;;;22.50;57.10;;;;;;4478216;32;20207;-75
2022/05/18 01:40:40;;;;;;;2.33;1.30;;;22.50;57.10;;;;;;4478472;31;20526;-75
2022/05/18 01:43:15;;;;;;;3.42;1.75;;;22.50;57.00;;;;;;4478473;31;20088;-75
2022/05/18 01:45:41;;;;;;;2.05;1.38;;;22.50;57.10;;;;;;4478731;31;20340;-76
2022/05/18 01:48:13;;;;;;;2.05;1.60;;;22.50;57.10;;;;;;4478225;32;20174;-75
2022/05/18 01:50:39;;;;;;;2.03;1.40;;;22.50;57.10;;;;;;4478227;31;20073;-75
2022/05/18 01:53:06;;;;;;;2.53;1.40;;;22.50;57.10;;;;;;4478631;31;20081;-75
2022/05/18 01:55:32;;;;;;;3.35;1.65;;;22.50;57.10;;;;;;4478438;32;20226;-75
2022/05/18 01:57:58;;;;;;;3.00;1.52;;;22.50;57.10;;;;;;4478268;31;20408;-75
2022/05/18 02:00:25;;;;;;;2.35;1.50;;;22.50;57.10;;;;;;4478463;31;20081;-75
2022/05/18 02:02:51;;;;;;;2.28;1.50;;;22.50;57.10;;;;;;4477932;31;20178;-75
2022/05/18 02:05:17;;;;;;;1.92;1.33;;;22.50;57.10;;;;;;4477855;32;20219;-75
2022/05/18 02:07:43;;;;;;;2.38;1.40;;;22.50;57.10;;;;;;4477492;31;20093;-75
2022/05/18 02:10:11;;;;;;;2.78;1.70;;;22.50;57.10;;;;;;4477884;32;20438;-75
2022/05/18 02:12:37;;;;;;;2.53;1.30;;;22.50;57.10;;;;;;4477732;32;20404;-74
2022/05/18 02:15:04;;;;;;;2.03;1.50;;;22.50;57.10;;;;;;4477966;31;20214;-75
2022/05/18 02:17:30;;;;;;;1.95;1.30;;;22.40;57.00;;;;;;4477952;31;20077;-74
2022/05/18 02:19:58;;;;;;;2.17;1.52;;;22.40;57.10;;;;;;4477821;31;20073;-75
2022/05/18 02:22:24;;;;;;;2.70;1.60;;;22.40;57.10;;;;;;4478158;31;20215;-75
2022/05/18 02:24:50;;;;;;;2.08;1.40;;;22.40;57.10;;;;;;4477782;31;20073;-75
2022/05/18 02:27:17;;;;;;;2.28;1.42;;;22.40;57.10;;;;;;4477793;32;20084;-75
2022/05/18 02:29:42;;;;;;;2.03;1.42;;;22.40;57.10;;;;;;4477757;31;20089;-75
2022/05/18 02:32:09;;;;;;;1.70;1.38;;;22.40;57.10;;;;;;4477725;31;20147;-75
2022/05/18 02:34:36;;;;;;;2.38;1.50;;;22.40;57.10;;;;;;4477675;32;20077;-75
2022/05/18 02:37:03;;;;;;;2.08;1.40;;;22.40;57.10;;;;;;4477397;31;20136;-75
2022/05/18 02:39:30;;;;;;;1.30;1.20;;;22.40;57.10;;;;;;4477552;31;20167;-75
2022/05/18 02:41:56;;;;;;;2.08;1.52;;;22.40;57.10;;;;;;4477845;31;20070;-75
2022/05/18 02:44:22;;;;;;;1.40;1.30;;;22.40;57.10;;;;;;4477509;31;20175;-75
2022/05/18 02:46:48;;;;;;;2.33;1.50;;;22.40;57.10;;;;;;4477753;31;20069;-75
2022/05/18 02:49:15;;;;;;;2.67;1.50;;;22.40;57.10;;;;;;4476311;32;20088;-75
2022/05/18 02:51:41;;;;;;;2.95;1.50;;;22.40;57.10;;;;;;4477445;31;20565;-74
2022/05/18 02:56:53;;;;;;;3.28;1.40;;;22.40;57.10;;;;;;4477731;32;20069;-75
2022/05/18 02:59:20;;;;;;;2.25;1.40;;;22.40;57.10;;;;;;4477286;32;20077;-75
2022/05/18 03:01:47;;;;;;;1.85;1.40;;;22.40;57.10;;;;;;4477316;31;20077;-75
2022/05/18 03:04:14;;;;;;;2.35;1.30;;;22.40;57.10;;;;;;4477237;31;20077;-75
2022/05/18 03:06:40;;;;;;;3.03;1.40;;;22.40;57.10;;;;;;4477405;31;20073;-74
2022/05/18 03:09:07;;;;;;;1.98;1.40;;;22.40;57.10;;;;;;4477231;32;20073;-75
2022/05/18 03:11:33;;;;;;;3.15;1.60;;;22.40;57.10;;;;;;4477129;31;20426;-75
2022/05/18 03:13:59;;;;;;;2.17;1.35;;;22.30;57.00;;;;;;4476829;31;20526;-75
2022/05/18 03:16:27;;;;;;;2.28;1.50;;;22.30;57.00;;;;;;4477024;32;20088;-75
2022/05/18 03:18:53;;;;;;;2.42;1.67;;;22.30;57.00;;;;;;4476882;31;20085;-75
2022/05/18 03:24:04;;;;;;;1.95;1.48;;;22.30;57.00;;;;;;4477304;32;20073;-75
2022/05/18 03:26:30;;;;;;;3.92;1.92;;;22.30;57.00;;;;;;4476824;31;20089;-75
2022/05/18 03:28:56;;;;;;;1.95;1.35;;;22.30;57.00;;;;;;4475822;32;20195;-75
2022/05/18 03:31:24;;;;;;;2.15;1.40;;;22.30;57.00;;;;;;4476832;32;20081;-75
2022/05/18 03:33:50;;;;;;;2.35;1.70;;;22.30;57.00;;;;;;4476792;32;20162;-75
2022/05/18 03:36:19;;;;;;;1.92;1.50;;;22.30;57.00;;;;;;4476791;31;20089;-75
2022/05/18 03:38:46;;;;;;;2.67;1.60;;;22.30;57.00;;;;;;4476744;31;20085;-75
2022/05/18 03:41:13;;;;;;;2.42;1.52;;;22.30;57.00;;;;;;4476699;31;20074;-75
2022/05/18 03:43:39;;;;;;;1.80;1.50;;;22.30;57.00;;;;;;4476669;31;20066;-75
2022/05/18 03:46:06;;;;;;;2.42;1.70;;;22.30;57.00;;;;;;4476373;31;20205;-75
2022/05/18 03:48:32;;;;;;;2.00;1.42;;;22.30;57.00;;;;;;4476544;32;20231;-74
2022/05/18 03:51:00;;;;;;;2.10;1.30;;;22.30;57.00;;;;;;4476273;31;20088;-75
2022/05/18 03:53:27;;;;;;;1.95;1.30;;;22.30;57.00;;;;;;4476328;32;20170;-75
2022/05/18 03:55:53;;;;;;;1.77;1.48;;;22.30;57.00;;;;;;4476776;32;20069;-75
2022/05/18 03:58:19;;;;;;;2.08;1.50;;;22.20;57.90;;;;;;4476565;32;20119;-75
2022/05/18 04:00:47;;;;;;;1.67;1.38;;;22.20;57.00;;;;;;4475303;32;20135;-75
2022/05/18 04:03:14;;;;;;;2.03;1.33;;;22.20;57.00;;;;;;4476754;32;20080;-75
2022/05/18 04:05:41;;;;;;;1.85;1.30;;;22.20;57.00;;;;;;4476181;32;20077;-75
2022/05/18 04:08:09;;;;;;;2.60;1.45;;;22.20;57.00;;;;;;4476426;32;20577;-75
2022/05/18 04:10:36;;;;;;;2.40;1.80;;;22.20;57.90;;;;;;4476531;32;20093;-74
2022/05/18 04:13:02;;;;;;;2.38;1.23;;;22.20;57.00;;;;;;4476445;32;20089;-75
2022/05/18 04:15:28;;;;;;;1.95;1.50;;;22.20;57.00;;;;;;4476275;32;20086;-75
2022/05/18 04:17:55;;;;;;;1.88;1.45;;;22.20;57.00;;;;;;4476359;32;20080;-75
2022/05/18 04:20:22;;;;;;;2.05;1.63;;;22.20;57.00;;;;;;4476540;32;20166;-75
2022/05/18 04:22:49;;;;;;;1.63;1.13;;;22.20;57.00;;;;;;4476445;32;20506;-75
2022/05/18 04:25:18;;;;;;;2.58;1.58;;;22.20;57.00;;;;;;4476319;32;20430;-75
2022/05/18 04:27:47;;;;;;;1.75;1.27;;;22.20;57.00;;;;;;4476309;32;20103;-75
2022/05/18 04:30:21;;;;;;;2.28;1.40;;;22.20;57.00;;;;;;4476373;32;20081;-75
2022/05/18 04:32:47;;;;;;;1.85;1.30;;;22.20;57.00;;;;;;4479007;32;20069;-75
2022/05/18 04:35:16;;;;;;;1.83;1.55;;;22.20;57.00;;;;;;4479487;31;20096;-75
2022/05/18 04:37:42;;;;;;;2.10;1.45;;;22.20;57.00;;;;;;4479365;31;20136;-74
2022/05/18 04:40:09;;;;;;;1.52;1.20;;;22.20;57.00;;;;;;4479137;31;20163;-75
2022/05/18 04:42:35;;;;;;;1.77;1.40;;;22.20;57.00;;;;;;4479681;32;20089;-75
2022/05/18 04:45:01;;;;;;;1.50;1.40;;;22.20;57.00;;;;;;4479622;32;20093;-75
2022/05/18 04:47:27;;;;;;;2.00;1.33;;;22.20;57.00;;;;;;4478379;32;20088;-74
2022/05/18 04:49:55;;;;;;;2.30;1.45;;;22.20;57.00;;;;;;4478911;31;20074;-74
2022/05/18 04:52:21;;;;;;;1.85;1.40;;;22.20;57.00;;;;;;4478688;31;20081;-75
2022/05/18 04:54:48;;;;;;;1.80;1.52;;;22.20;57.00;;;;;;4479324;31;20089;-75
2022/05/18 04:57:15;;;;;;;1.60;1.30;;;22.20;57.00;;;;;;4479222;32;20085;-74
2022/05/18 04:59:41;;;;;;;1.30;1.20;;;22.20;57.00;;;;;;4479384;31;20133;-75
2022/05/18 05:02:07;;;;;;;2.00;1.40;;;22.20;57.00;;;;;;4479219;31;20085;-74
2022/05/18 05:04:34;;;;;;;1.77;1.40;;;22.20;57.00;;;;;;4479030;32;20058;-75
2022/05/18 05:07:00;;;;;;;1.33;1.23;;;22.20;57.00;;;;;;4479302;32;20187;-75
2022/05/18 05:09:26;;;;;;;1.52;1.23;;;22.20;57.00;;;;;;4479310;31;20081;-74
2022/05/18 05:11:52;;;;;;;1.75;1.25;;;22.20;57.00;;;;;;4478725;32;20116;-75
2022/05/18 05:14:20;;;;;;;1.30;1.20;;;22.20;57.00;;;;;;4478075;32;20132;-74
2022/05/18 05:16:47;;;;;;;1.90;1.20;;;22.20;57.00;;;;;;4478677;32;20093;-74
2022/05/18 05:19:14;;;;;;;1.95;1.50;;;22.20;57.00;;;;;;4478890;31;20104;-72
2022/05/18 05:21:42;;;;;;;1.92;1.40;;;22.10;57.00;;;;;;4478796;31;20084;-73
2022/05/18 05:24:15;;;;;;;3.05;1.65;;;22.10;57.10;;;;;;4478885;31;20211;-73
2022/05/18 05:26:42;;;;;;;4.57;2.20;;;22.20;57.20;;;;;;4478349;32;20266;-73
2022/05/18 05:29:09;;;;;;;3.40;1.88;;;22.20;57.20;;;;;;4478639;31;20419;-73
2022/05/18 05:31:36;;;;;;;3.10;2.03;;;22.20;57.10;;;;;;4478244;31;20089;-73
2022/05/18 05:34:03;;;;;;;6.75;2.13;;;22.20;57.20;;;;;;4478601;32;20089;-73
2022/05/18 05:36:29;;;;;;;3.80;1.77;;;22.20;57.20;;;;;;4478595;31;20234;-74
2022/05/18 05:38:55;;;;;;;2.88;1.80;;;22.20;57.20;;;;;;4478575;31;20084;-73
2022/05/18 05:41:21;;;;;;;2.83;1.77;;;22.20;57.30;;;;;;4478857;31;20101;-73
2022/05/18 05:43:47;;;;;;;2.95;1.80;;;22.20;57.30;;;;;;4478527;32;20466;-73
2022/05/18 05:46:13;;;;;;;2.88;1.80;;;22.20;57.40;;;;;;4478400;31;20069;-73
2022/05/18 05:48:41;;;;;;;4.15;1.92;;;22.30;57.40;;;;;;4478361;32;20077;-73
2022/05/18 05:51:12;;;;;;;3.53;1.90;;;22.30;57.40;;;;;;4478403;31;20085;-73
2022/05/18 05:53:41;;;;;;;4.13;1.75;;;22.30;57.40;;;;;;4478811;32;20070;-73
2022/05/18 05:56:08;;;;;;;3.03;1.77;;;22.30;57.40;;;;;;4478401;31;20085;-73
2022/05/18 05:58:36;;;;;;;2.38;1.65;;;22.40;57.40;;;;;;4478050;31;20533;-73
2022/05/18 06:01:07;;;;;;;3.60;1.73;;;22.40;57.50;;;;;;4477921;31;20207;-73
2022/05/18 06:03:34;;;;;;;2.58;1.45;;;22.40;58.40;;;;;;4478345;31;20088;-74
2022/05/18 06:06:02;;;;;;;2.25;1.25;;;22.40;57.40;;;;;;4477823;31;20096;-73
2022/05/18 06:08:30;;;;;;;3.15;1.80;;;22.40;57.40;;;;;;4478182;31;20117;-73
2022/05/18 06:10:57;;;;;;;2.03;1.20;;;22.40;57.40;;;;;;4478315;31;20077;-73
2022/05/18 06:13:23;;;;;;;2.92;1.70;;;22.40;57.40;;;;;;4478080;31;20227;-73
2022/05/18 06:15:50;;;;;;;2.42;1.60;;;22.40;57.40;;;;;;4477863;32;20128;-70
2022/05/18 06:18:16;;;;;;;3.40;1.55;;;22.40;57.60;;;;;;4478168;32;20192;-70
2022/05/18 06:20:42;;;;;;;3.05;1.80;;;22.50;57.80;;;;;;4476893;32;20231;-70
2022/05/18 06:23:09;;;;;;;7.43;3.28;;;22.50;57.80;;;;;;4477828;32;20495;-70
2022/05/18 06:25:35;;;;;;;9.15;2.97;;;22.50;58.30;;;;;;4476622;32;20084;-70
2022/05/18 06:28:05;;;;;;;5.50;3.58;;;22.50;58.50;;;;;;4476651;32;20109;-70
2022/05/18 06:30:31;;;;;;;8.55;3.80;;;22.60;58.90;;;;;;4477702;32;20109;-69
2022/05/18 06:32:57;;;;;;;6.45;3.70;;;22.60;59.10;;;;;;4477680;31;20087;-69
2022/05/18 06:35:24;;;;;;;9.02;3.90;;;22.60;59.30;;;;;;4477783;32;20069;-69
2022/05/18 06:37:50;;;;;;;5.70;3.78;;;22.60;59.60;;;;;;4477316;31;20507;-69
2022/05/18 06:40:16;;;;;;;7.82;3.88;;;22.60;59.70;;;;;;4477679;31;20085;-68
2022/05/18 06:42:43;;;;;;;6.28;4.05;;;22.70;59.90;;;;;;4477552;31;20263;-70
2022/05/18 06:45:11;;;;;;;7.07;4.40;;;22.70;59.80;;;;;;4477425;32;20498;-69
2022/05/18 06:47:37;;;;;;;8.32;4.55;;;22.70;59.70;;;;;;4477368;31;20607;-69
2022/05/18 06:50:08;;;;;;;9.90;4.57;;;22.80;59.70;;;;;;4477230;31;20139;-68
2022/05/18 06:52:34;;;;;;;10.07;4.25;;;22.80;59.80;;;;;;4476897;31;20097;-68
2022/05/18 06:55:01;;;;;;;7.10;3.80;;;22.80;59.90;;;;;;4476937;32;20218;-69
2022/05/18 06:57:26;;;;;;;7.78;4.03;;;22.90;59.80;;;;;;4477256;31;20128;-69
2022/05/18 06:59:52;;;;;;;8.20;4.30;;;22.90;59.80;;;;;;4476130;32;20215;-69
2022/05/18 07:02:18;;;;;;;9.68;4.60;;;22.90;59.70;;;;;;4477307;31;20077;-69
2022/05/18 07:04:44;;;;;;;11.60;5.07;;;22.90;59.60;;;;;;4477082;31;20073;-69
2022/05/18 07:07:10;;;;;;;11.82;5.00;;;23.00;59.50;;;;;;4477139;31;20187;-69
2022/05/18 07:09:36;;;;;;;8.40;5.28;;;23.00;59.40;;;;;;4476837;32;20081;-69
2022/05/18 07:12:02;;;;;;;8.77;5.40;;;23.10;59.40;;;;;;4477003;32;20310;-69
2022/05/18 07:14:29;;;;;;;8.60;5.18;;;23.10;59.30;;;;;;4476995;32;20065;-69
2022/05/18 07:16:56;;;;;;;11.50;5.65;;;23.10;59.10;;;;;;4476812;31;20073;-69
2022/05/18 07:19:23;;;;;;;9.15;5.10;;;23.10;59.20;;;;;;4476858;31;20447;-69
2022/05/18 07:21:49;;;;;;;10.07;4.75;;;23.10;59.30;;;;;;4475550;32;20515;-69
2022/05/18 07:24:16;;;;;;;7.80;4.78;;;23.20;59.40;;;;;;4476835;31;20147;-69
2022/05/18 07:26:42;;;;;;;7.82;4.50;;;23.20;59.30;;;;;;4476740;31;20202;-69
2022/05/18 07:29:08;;;;;;;6.30;3.85;;;23.20;59.30;;;;;;4476973;31;20219;-69
2022/05/18 07:32:08;;;;;;;10.38;4.72;;;23.30;59.20;;;;;;4476722;32;20092;-69
2022/05/18 07:34:21;;;;;;;7.32;3.85;;;23.30;59.20;;;;;;4476766;31;20132;-69
2022/05/18 07:36:50;;;;;;;8.85;3.70;;;23.40;59.20;;;;;;4476665;32;20092;-71
2022/05/18 07:39:16;;;;;;;9.32;5.50;;;23.40;59.20;;;;;;4476357;31;20093;-69
2022/05/18 07:41:43;;;;;;;9.48;4.80;;;23.40;59.10;;;;;;4476604;32;20501;-69
2022/05/18 07:44:09;;;;;;;8.25;4.18;;;23.50;59.20;;;;;;4476605;31;20510;-69
2022/05/18 07:46:35;;;;;;;9.52;5.22;;;23.50;59.10;;;;;;4476215;31;20541;-69
2022/05/18 07:49:02;;;;;;;13.45;5.47;;;23.50;59.10;;;;;;4476207;31;20081;-69
2022/05/18 07:51:28;;;;;;;13.13;5.05;;;23.60;59.10;;;;;;4476503;31;20143;-69
2022/05/18 07:53:53;;;;;;;10.32;5.35;;;23.60;59.00;;;;;;4476467;32;20518;-69
2022/05/18 07:56:19;;;;;;;9.45;5.40;;;23.60;60.00;;;;;;4476410;32;20415;-69
2022/05/18 07:58:45;;;;;;;9.02;5.68;;;23.70;59.00;;;;;;4476411;32;20081;-69
2022/05/18 08:01:11;;;;;;;9.10;5.18;;;23.70;59.00;;;;;;4476350;32;20215;-69
2022/05/18 08:03:37;;;;;;;9.32;5.50;;;23.80;59.00;;;;;;4476341;32;20085;-69
2022/05/18 08:06:03;;;;;;;12.02;6.15;;;23.80;58.80;;;;;;4476257;32;20533;-69
2022/05/18 08:08:29;;;;;;;10.68;5.55;;;23.80;58.60;;;;;;4476041;31;20183;-69
2022/05/18 08:16:25;;;;;;;10.23;6.13;;;23.90;58.60;;;;;;4475350;32;20410;-68
2022/05/18 08:18:51;;;;;;;9.95;5.47;;;24.00;58.50;;;;;;4476014;32;20239;-69
2022/05/18 08:21:18;;;;;;;12.85;4.93;;;24.00;58.30;;;;;;4476356;32;20165;-69
2022/05/18 08:23:44;;;;;;;12.57;5.30;;;24.10;58.10;;;;;;4476161;32;20085;-69
2022/05/18 08:26:10;;;;;;;11.25;4.63;;;24.10;57.80;;;;;;4476092;32;20061;-68
2022/05/18 08:28:40;;;;;;;7.88;4.80;;;24.20;57.70;;;;;;4476165;32;20073;-68
2022/05/18 08:31:06;;;;;;;14.65;5.38;;;24.20;57.40;;;;;;4476102;32;20069;-68
2022/05/18 08:33:33;;;;;;;12.15;4.50;;;24.20;57.10;;;;;;4476075;32;20093;-69
2022/05/18 08:36:04;;;;;;;8.75;3.97;;;24.30;56.80;;;;;;4475070;32;20090;-70
2022/05/18 08:38:29;;;;;;;11.73;4.40;;;24.30;56.60;;;;;;4476179;32;20159;-69
2022/05/18 08:41:07;;;;;;;8.82;3.90;;;24.40;56.30;;;;;;4475755;32;20174;-68
2022/05/18 08:43:36;;;;;;;8.02;3.88;;;24.40;55.80;;;;;;4476387;32;20077;-69
2022/05/18 08:46:18;;;;;;;6.80;3.50;;;24.40;55.30;;;;;;4475925;32;20127;-68
2022/05/18 08:48:55;;;;;;;6.38;3.05;;;24.40;54.80;;;;;;4475012;32;20514;-69
2022/05/18 08:51:41;;;;;;;6.85;3.33;;;24.50;54.70;;;;;;4474879;32;20078;-68
2022/05/18 08:54:30;;;;;;;5.70;2.97;;;24.50;54.40;;;;;;4476060;32;20161;-68
2022/05/18 08:57:00;;;;;;;10.13;2.88;;;24.60;53.90;;;;;;4467764;32;20092;-68
2022/05/18 08:59:31;;;;;;;7.45;3.60;;;24.60;54.10;;;;;;4476255;32;20155;-68
2022/05/18 09:01:59;;;;;;;4.07;2.97;;;24.60;53.80;;;;;;4475984;32;20074;-68
2022/05/18 09:04:50;;;;;;;5.38;2.95;;;24.70;53.50;;;;;;4475728;32;20085;-68
2022/05/18 09:07:19;;;;;;;11.75;2.72;;;24.70;53.00;;;;;;4475987;32;20153;-68
2022/05/18 09:10:26;;;;;;;6.65;2.85;;;24.70;53.00;;;;;;4475860;32;20058;-68
2022/05/18 09:12:50;;;;;;;7.45;2.60;;;24.70;52.50;;;;;;4474802;32;20414;-68
2022/05/18 09:15:50;;;;;;;6.65;2.50;;;24.80;52.10;;;;;;4476410;32;20097;-67
2022/05/18 09:18:34;;;;;;;8.07;2.45;;;24.80;51.50;;;;;;4475261;32;20073;-67
2022/05/18 09:21:39;;;;;;;6.60;2.50;;;24.90;51.30;;;;;;4479010;31;20420;-68
2022/05/18 09:24:21;;;;;;;4.03;2.20;;;24.90;51.20;;;;;;4479031;31;20553;-67
2022/05/18 09:26:55;;;;;;;7.80;2.47;;;25.00;50.10;;;;;;4478706;31;20206;-69
2022/05/18 09:29:44;;;;;;;6.57;2.40;;;25.10;50.00;;;;;;4478755;31;20058;-69
2022/05/18 09:32:22;;;;;;;6.32;2.22;;;25.10;49.70;;;;;;4478610;31;20600;-69
2022/05/18 09:35:12;;;;;;;6.75;2.30;;;25.10;49.60;;;;;;4478574;31;20577;-69
2022/05/18 09:37:43;;;;;;;5.63;2.10;;;25.20;49.40;;;;;;4478882;31;20073;-68
2022/05/18 09:40:18;;;;;;;9.80;2.20;;;25.30;49.80;;;;;;4478500;31;20629;-68
2022/05/18 09:43:13;;;;;;;6.93;2.40;;;25.30;49.80;;;;;;4478702;31;20093;-68
2022/05/18 09:45:43;;;;;;;3.60;1.98;;;25.30;49.70;;;;;;4478694;31;20515;-68
2022/05/18 09:48:11;;;;;;;7.90;2.60;;;25.40;49.90;;;;;;4478227;32;20069;-68
2022/05/18 09:50:41;;;;;;;4.60;2.28;;;25.40;49.50;;;;;;4478111;31;20139;-68
2022/05/18 09:53:08;;;;;;;5.63;2.10;;;25.40;49.20;;;;;;4478500;31;20487;-68
2022/05/18 09:55:34;;;;;;;5.65;2.30;;;25.50;49.20;;;;;;4478100;31;20117;-69
2022/05/18 09:58:18;;;;;;;4.93;1.73;;;25.50;49.10;;;;;;4478200;31;20081;-69
2022/05/18 10:00:43;;;;;;;;;;;25.60;49.10;;;;;;4478964;31;20062;-68
2022/05/18 10:08:58;;;;;;;7.78;2.40;;;25.60;49.20;;;;;;4477971;32;20139;-68
2022/05/18 10:11:33;;;;;;;10.75;2.95;;;25.70;49.20;;;;;;4477725;31;20219;-69
2022/05/18 10:14:08;;;;;;;7.05;2.22;;;25.70;49.10;;;;;;4477879;32;20514;-68
2022/05/18 10:16:39;;;;;;;4.53;2.13;;;25.70;49.10;;;;;;4477985;31;20073;-68
2022/05/18 10:19:13;;;;;;;8.25;2.33;;;25.70;49.10;;;;;;4477826;31;20085;-67
2022/05/18 10:21:50;;;;;;;7.20;2.90;;;25.70;49.30;;;;;;4478114;31;20077;-67
2022/05/18 10:24:33;;;;;;;5.65;2.47;;;25.70;49.60;;;;;;4477656;31;20511;-68
2022/05/18 10:27:13;;;;;;;7.50;2.67;;;25.70;50.00;;;;;;4477559;31;20109;-68
2022/05/18 10:29:40;;;;;;;6.07;2.78;;;25.60;50.30;;;;;;4476572;32;20081;-68
2022/05/18 10:32:18;;;;;;;5.60;2.92;;;25.60;50.60;;;;;;4477111;31;20077;-68
2022/05/18 10:34:49;;;;;;;5.88;3.17;;;25.60;50.80;;;;;;4477336;31;20127;-68
2022/05/18 10:37:25;;;;;;;5.72;3.50;;;25.50;50.80;;;;;;4477671;31;20139;-68
2022/05/18 10:39:55;;;;;;;8.95;3.67;;;25.50;51.00;;;;;;4477685;31;20074;-68
2022/05/18 10:42:30;;;;;;;9.25;3.83;;;25.50;51.10;;;;;;4477577;31;20078;-68
2022/05/18 10:45:00;;;;;;;9.63;3.53;;;25.50;51.20;;;;;;4477205;31;20223;-68
2022/05/18 10:47:38;;;;;;;9.43;3.30;;;25.50;51.30;;;;;;4477406;31;20088;-68
2022/05/18 10:50:21;;;;;;;8.27;3.25;;;25.50;51.60;;;;;;4477524;31;20070;-68
2022/05/18 10:52:48;;;;;;;8.52;3.47;;;25.50;51.60;;;;;;4477196;31;20170;-68
2022/05/18 10:55:19;;;;;;;8.65;3.65;;;25.50;51.70;;;;;;4477499;31;20088;-68
2022/05/18 10:58:21;;;;;;;10.85;3.83;;;25.50;51.80;;;;;;4477356;31;20211;-68
2022/05/18 11:01:18;;;;;;;6.75;3.67;;;25.50;51.90;;;;;;4476935;31;20096;-68
2022/05/18 11:03:54;;;;;;;8.98;3.58;;;25.50;52.10;;;;;;4477244;31;20093;-68
2022/05/18 11:06:22;;;;;;;6.80;3.63;;;25.50;52.20;;;;;;4477474;32;20499;-67
2022/05/18 11:08:50;;;;;;;8.52;4.05;;;25.50;52.30;;;;;;4476049;32;20203;-67
2022/05/18 11:11:19;;;;;;;9.25;4.75;;;25.50;52.40;;;;;;4476798;31;20078;-68
2022/05/18 11:14:05;;;;;;;12.15;4.35;;;25.50;52.50;;;;;;4476891;31;20082;-67
2022/05/18 11:16:56;;;;;;;11.52;4.25;;;25.50;52.50;;;;;;4477123;32;20074;-68
2022/05/18 11:19:26;;;;;;;9.63;3.95;;;25.50;52.70;;;;;;4477021;31;20253;-68
2022/05/18 11:22:31;;;;;;;11.23;4.50;;;25.50;52.80;;;;;;4476981;31;20578;-68
2022/05/18 11:25:24;;;;;;;10.23;4.47;;;25.50;53.20;;;;;;4476946;31;20166;-67
2022/05/18 11:28:07;;;;;;;7.43;4.63;;;25.40;53.40;;;;;;4476685;31;20434;-67
2022/05/18 11:30:45;;;;;;;9.68;4.60;;;25.50;53.50;;;;;;4477075;31;20222;-68
2022/05/18 11:33:35;;;;;;;10.70;4.82;;;25.50;53.50;;;;;;4476834;32;20163;-67
2022/05/18 11:36:15;;;;;;;9.95;4.25;;;25.50;53.60;;;;;;4476955;32;20089;-67
2022/05/18 11:38:41;;;;;;;10.18;5.20;;;25.40;53.50;;;;;;4476726;31;20077;-67
2022/05/18 11:41:35;;;;;;;12.20;5.00;;;25.40;53.60;;;;;;4476715;31;20072;-68
2022/05/18 11:44:03;;;;;;;13.80;6.10;;;25.40;53.50;;;;;;4476576;31;20136;-68
2022/05/18 11:46:41;;;;;;;12.57;5.22;;;25.40;54.80;;;;;;4475395;32;20417;-68
2022/05/18 11:49:25;;;;;;;12.80;5.47;;;25.30;53.80;;;;;;4476494;32;20069;-67
2022/05/18 11:52:15;;;;;;;10.90;5.03;;;25.30;54.20;;;;;;4476477;31;20155;-67
2022/05/18 11:55:00;;;;;;;8.60;5.00;;;25.20;54.40;;;;;;4476841;31;20065;-67
2022/05/18 11:57:38;;;;;;;11.20;4.72;;;25.10;54.70;;;;;;4476807;31;20498;-67
2022/05/18 12:03:29;;;;;;;8.63;4.20;;;25.00;55.00;;;;;;4476535;32;20406;-67
2022/05/18 12:06:10;;;;;;;12.13;4.32;;;25.00;55.30;;;;;;4476442;32;20215;-67
2022/05/18 12:09:12;;;;;;;8.00;4.22;;;24.90;55.60;;;;;;4476132;31;20074;-67
2022/05/18 12:12:05;;;;;;;8.02;3.58;;;24.90;55.30;;;;;;4476444;31;20084;-68
2022/05/18 12:14:50;;;;;;;6.38;3.40;;;24.90;55.80;;;;;;4475149;32;20070;-67
2022/05/18 12:17:20;;;;;;;7.97;3.38;;;24.90;55.70;;;;;;4476450;31;20083;-67
2022/05/18 12:20:00;;;;;;;9.68;3.42;;;24.80;55.80;;;;;;4476482;32;20084;-67
2022/05/18 12:22:36;;;;;;;10.15;3.65;;;24.80;55.80;;;;;;4476564;32;20085;-67
2022/05/18 12:25:03;;;;;;;8.77;4.00;;;24.80;55.80;;;;;;4475174;32;20081;-67
2022/05/18 12:27:30;;;;;;;4.75;3.20;;;24.80;55.90;;;;;;4476243;32;20073;-68
2022/05/18 12:29:58;;;;;;;6.85;3.47;;;24.80;55.90;;;;;;4476165;32;20168;-67
2022/05/18 12:32:25;;;;;;;8.60;3.67;;;24.70;56.00;;;;;;4476140;32;20147;-67
2022/05/18 12:35:16;;;;;;;5.82;2.97;;;24.70;56.10;;;;;;4476153;32;20497;-67
2022/05/18 12:38:10;;;;;;;6.15;3.25;;;24.70;56.10;;;;;;4476436;32;20495;-67
2022/05/18 12:41:08;;;;;;;5.60;3.17;;;24.70;56.10;;;;;;4475197;32;20073;-67
2022/05/18 12:43:43;;;;;;;7.57;3.55;;;24.70;56.10;;;;;;4475930;32;20065;-67
2022/05/18 12:46:15;;;;;;;5.85;3.22;;;24.70;56.20;;;;;;4476182;32;20069;-67
2022/05/18 12:48:47;;;;;;;4.78;2.90;;;24.70;56.30;;;;;;4476000;32;20414;-67
2022/05/18 12:51:29;;;;;;;5.13;3.20;;;24.70;56.20;;;;;;4475774;32;20235;-67
2022/05/18 12:54:10;;;;;;;4.28;2.90;;;24.70;56.20;;;;;;4479268;32;20069;-67
2022/05/18 12:56:35;;;;;;;5.55;3.13;;;24.60;56.40;;;;;;4478854;31;20169;-67
2022/05/18 12:59:22;;;;;;;7.30;2.97;;;24.60;56.40;;;;;;4479065;31;20081;-67
2022/05/18 13:02:02;;;;;;;5.38;3.35;;;24.60;56.20;;;;;;4479333;31;20403;-67
2022/05/18 13:04:28;;;;;;;8.00;3.58;;;24.60;56.40;;;;;;4479277;31;20638;-67
2022/05/18 13:07:00;;;;;;;8.15;4.22;;;24.70;56.30;;;;;;4478850;31;20065;-68
2022/05/18 13:09:38;;;;;;;9.02;4.75;;;24.60;56.10;;;;;;4479340;31;20073;-70
2022/05/18 13:12:03;;;;;;;9.43;5.35;;;24.70;55.90;;;;;;4478923;31;20100;-71
2022/05/18 13:14:53;;;;;;;16.08;5.72;;;24.70;55.70;;;;;;4478896;32;20411;-71
2022/05/18 13:17:21;;;;;;;13.10;6.07;;;24.80;55.50;;;;;;4479131;31;20069;-71
2022/05/18 13:19:54;;;;;;;18.45;6.70;;;24.80;55.40;;;;;;4478471;31;20099;-70
2022/05/18 13:22:19;;;;;;;13.93;5.65;;;24.80;55.20;;;;;;4478829;31;20093;-70
2022/05/18 13:24:56;;;;;;;19.27;6.30;;;24.80;55.10;;;;;;4478299;31;20164;-71